sensor_id;sensor_type;location;lat;lon;timestamp;P1;durP1;ratioP1;P2;durP2;ratioP2
64426;SDS011;50772;51.482;-0.580;2022-08-01T00:00:27;1.77;;;1.77;;
64426;SDS011;50772;51.482;-0.580;2022-08-01T00:02:52;2.08;;;1.77;;
64426;SDS011;50772;51.482;-0.580;2022-08-01T00:05:17;2.17;;;1.67;;
64426;SDS011;50772;51.482;-0.580;2022-08-01T00:07:42;2.00;;;1.90;;
64426;SDS011;50772;51.482;-0.580;2022-08-01T00:10:10;1.75;;;1.75;;
64426;SDS011;50772;51.482;-0.580;2022-08-01T00:12:36;1.98;;;1.88;;
64426;SDS011;50772;51.482;-0.580;2022-08-01T00:15:01;2.08;;;1.98;;
64426;SDS011;50772;51.482;-0.580;2022-08-01T00:17:27;2.20;;;2.00;;
64426;SDS011;50772;51.482;-0.580;2022-08-01T00:19:52;1.90;;;1.80;;
64426;SDS011;50772;51.482;-0.580;2022-08-01T00:22:17;1.60;;;1.60;;
64426;SDS011;50772;51.482;-0.580;2022-08-01T00:24:42;2.93;;;2.13;;
64426;SDS011;50772;51.482;-0.580;2022-08-01T00:27:08;2.60;;;2.00;;
64426;SDS011;50772;51.482;-0.580;2022-08-01T00:29:33;2.10;;;2.00;;
64426;SDS011;50772;51.482;-0.580;2022-08-01T00:31:58;1.87;;;1.77;;
64426;SDS011;50772;51.482;-0.580;2022-08-01T00:34:23;1.90;;;1.80;;
64426;SDS011;50772;51.482;-0.580;2022-08-01T00:36:48;2.10;;;2.00;;
64426;SDS011;50772;51.482;-0.580;2022-08-01T00:39:14;1.90;;;1.90;;
64426;SDS011;50772;51.482;-0.580;2022-08-01T00:41:40;1.75;;;1.75;;
64426;SDS011;50772;51.482;-0.580;2022-08-01T00:44:05;2.00;;;1.90;;
64426;SDS011;50772;51.482;-0.580;2022-08-01T00:46:30;2.00;;;1.90;;
64426;SDS011;50772;51.482;-0.580;2022-08-01T00:48:56;1.85;;;1.75;;
64426;SDS011;50772;51.482;-0.580;2022-08-01T00:51:22;2.10;;;2.00;;
64426;SDS011;50772;51.482;-0.580;2022-08-01T00:53:47;2.10;;;2.00;;
64426;SDS011;50772;51.482;-0.580;2022-08-01T00:56:12;1.63;;;1.63;;
64426;SDS011;50772;51.482;-0.580;2022-08-01T00:58:38;1.50;;;1.50;;
64426;SDS011;50772;51.482;-0.580;2022-08-01T01:01:03;1.70;;;1.70;;
64426;SDS011;50772;51.482;-0.580;2022-08-01T01:03:28;1.60;;;1.60;;
64426;SDS011;50772;51.482;-0.580;2022-08-01T01:05:56;1.52;;;1.52;;
64426;SDS011;50772;51.482;-0.580;2022-08-01T01:08:27;1.40;;;1.40;;
64426;SDS011;50772;51.482;-0.580;2022-08-01T01:10:56;1.60;;;1.50;;
64426;SDS011;50772;51.482;-0.580;2022-08-01T01:16:00;1.30;;;1.30;;
64426;SDS011;50772;51.482;-0.580;2022-08-01T01:18:33;3.08;;;1.60;;
64426;SDS011;50772;51.482;-0.580;2022-08-01T01:23:40;1.42;;;1.42;;
64426;SDS011;50772;51.482;-0.580;2022-08-01T01:26:17;1.77;;;1.60;;
64426;SDS011;50772;51.482;-0.580;2022-08-01T01:29:01;1.80;;;1.70;;
64426;SDS011;50772;51.482;-0.580;2022-08-01T01:31:27;1.70;;;1.67;;
64426;SDS011;50772;51.482;-0.580;2022-08-01T01:33:53;1.90;;;1.80;;
64426;SDS011;50772;51.482;-0.580;2022-08-01T01:36:20;6.57;;;1.70;;
64426;SDS011;50772;51.482;-0.580;2022-08-01T01:38:46;1.65;;;1.60;;
64426;SDS011;50772;51.482;-0.580;2022-08-01T01:41:14;1.90;;;1.80;;
64426;SDS011;50772;51.482;-0.580;2022-08-01T01:43:40;1.95;;;1.90;;
64426;SDS011;50772;51.482;-0.580;2022-08-01T01:46:06;1.75;;;1.65;;
64426;SDS011;50772;51.482;-0.580;2022-08-01T01:48:32;1.98;;;1.90;;
64426;SDS011;50772;51.482;-0.580;2022-08-01T01:50:58;1.77;;;1.67;;
64426;SDS011;50772;51.482;-0.580;2022-08-01T01:53:24;1.80;;;1.70;;
64426;SDS011;50772;51.482;-0.580;2022-08-01T01:55:51;1.92;;;1.83;;
64426;SDS011;50772;51.482;-0.580;2022-08-01T01:58:17;1.67;;;1.60;;
64426;SDS011;50772;51.482;-0.580;2022-08-01T02:00:44;1.90;;;1.80;;
64426;SDS011;50772;51.482;-0.580;2022-08-01T02:03:11;2.40;;;1.50;;
64426;SDS011;50772;51.482;-0.580;2022-08-01T02:05:37;2.05;;;1.92;;
64426;SDS011;50772;51.482;-0.580;2022-08-01T02:08:03;1.80;;;1.70;;
64426;SDS011;50772;51.482;-0.580;2022-08-01T02:10:29;1.55;;;1.45;;
64426;SDS011;50772;51.482;-0.580;2022-08-01T02:12:54;1.60;;;1.60;;
64426;SDS011;50772;51.482;-0.580;2022-08-01T02:15:22;3.28;;;1.70;;
64426;SDS011;50772;51.482;-0.580;2022-08-01T02:17:48;1.90;;;1.80;;
64426;SDS011;50772;51.482;-0.580;2022-08-01T02:20:14;1.58;;;1.58;;
64426;SDS011;50772;51.482;-0.580;2022-08-01T02:22:42;1.70;;;1.70;;
64426;SDS011;50772;51.482;-0.580;2022-08-01T02:25:16;1.60;;;1.60;;
64426;SDS011;50772;51.482;-0.580;2022-08-01T02:27:45;1.40;;;1.40;;
64426;SDS011;50772;51.482;-0.580;2022-08-01T02:30:13;1.55;;;1.52;;
64426;SDS011;50772;51.482;-0.580;2022-08-01T02:32:43;1.73;;;1.63;;
64426;SDS011;50772;51.482;-0.580;2022-08-01T02:35:09;1.83;;;1.73;;
64426;SDS011;50772;51.482;-0.580;2022-08-01T02:37:36;1.55;;;1.45;;
64426;SDS011;50772;51.482;-0.580;2022-08-01T02:40:03;1.40;;;1.40;;
64426;SDS011;50772;51.482;-0.580;2022-08-01T02:42:29;1.58;;;1.58;;
64426;SDS011;50772;51.482;-0.580;2022-08-01T02:44:55;1.63;;;1.63;;
64426;SDS011;50772;51.482;-0.580;2022-08-01T02:47:21;1.70;;;1.60;;
64426;SDS011;50772;51.482;-0.580;2022-08-01T02:49:48;1.73;;;1.50;;
64426;SDS011;50772;51.482;-0.580;2022-08-01T02:52:16;1.30;;;1.30;;
64426;SDS011;50772;51.482;-0.580;2022-08-01T02:54:42;1.85;;;1.80;;
64426;SDS011;50772;51.482;-0.580;2022-08-01T02:57:08;1.63;;;1.52;;
64426;SDS011;50772;51.482;-0.580;2022-08-01T02:59:34;1.50;;;1.50;;
64426;SDS011;50772;51.482;-0.580;2022-08-01T03:02:02;1.67;;;1.58;;
64426;SDS011;50772;51.482;-0.580;2022-08-01T03:04:29;1.60;;;1.50;;
64426;SDS011;50772;51.482;-0.580;2022-08-01T03:06:55;1.70;;;1.60;;
64426;SDS011;50772;51.482;-0.580;2022-08-01T03:09:23;1.50;;;1.50;;
64426;SDS011;50772;51.482;-0.580;2022-08-01T03:11:50;1.42;;;1.40;;
64426;SDS011;50772;51.482;-0.580;2022-08-01T03:14:16;1.45;;;1.35;;
64426;SDS011;50772;51.482;-0.580;2022-08-01T03:16:43;1.67;;;1.58;;
64426;SDS011;50772;51.482;-0.580;2022-08-01T03:19:09;1.40;;;1.40;;
64426;SDS011;50772;51.482;-0.580;2022-08-01T03:21:35;1.50;;;1.50;;
64426;SDS011;50772;51.482;-0.580;2022-08-01T03:24:02;1.58;;;1.58;;
64426;SDS011;50772;51.482;-0.580;2022-08-01T03:26:29;1.77;;;1.67;;
64426;SDS011;50772;51.482;-0.580;2022-08-01T03:28:55;1.63;;;1.50;;
64426;SDS011;50772;51.482;-0.580;2022-08-01T03:31:21;1.60;;;1.50;;
64426;SDS011;50772;51.482;-0.580;2022-08-01T03:33:47;1.77;;;1.73;;
64426;SDS011;50772;51.482;-0.580;2022-08-01T03:36:12;1.90;;;1.80;;
64426;SDS011;50772;51.482;-0.580;2022-08-01T03:38:39;2.17;;;2.10;;
64426;SDS011;50772;51.482;-0.580;2022-08-01T03:41:15;2.05;;;1.95;;
64426;SDS011;50772;51.482;-0.580;2022-08-01T03:43:46;1.60;;;1.50;;
64426;SDS011;50772;51.482;-0.580;2022-08-01T03:46:15;1.55;;;1.55;;
64426;SDS011;50772;51.482;-0.580;2022-08-01T03:48:43;1.52;;;1.52;;
64426;SDS011;50772;51.482;-0.580;2022-08-01T03:51:11;1.40;;;1.40;;
64426;SDS011;50772;51.482;-0.580;2022-08-01T03:53:37;1.63;;;1.52;;
64426;SDS011;50772;51.482;-0.580;2022-08-01T03:56:03;1.80;;;1.80;;
64426;SDS011;50772;51.482;-0.580;2022-08-01T03:58:29;1.50;;;1.50;;
64426;SDS011;50772;51.482;-0.580;2022-08-01T04:00:54;1.95;;;1.85;;
64426;SDS011;50772;51.482;-0.580;2022-08-01T04:03:20;1.63;;;1.55;;
64426;SDS011;50772;51.482;-0.580;2022-08-01T04:05:45;1.90;;;1.80;;
64426;SDS011;50772;51.482;-0.580;2022-08-01T04:08:10;1.57;;;1.47;;
64426;SDS011;50772;51.482;-0.580;2022-08-01T04:10:36;1.70;;;1.70;;
64426;SDS011;50772;51.482;-0.580;2022-08-01T04:13:01;1.67;;;1.58;;
64426;SDS011;50772;51.482;-0.580;2022-08-01T04:15:27;1.95;;;1.85;;
64426;SDS011;50772;51.482;-0.580;2022-08-01T04:17:52;1.90;;;1.77;;
64426;SDS011;50772;51.482;-0.580;2022-08-01T04:20:19;1.73;;;1.73;;
64426;SDS011;50772;51.482;-0.580;2022-08-01T04:22:44;2.00;;;1.90;;
64426;SDS011;50772;51.482;-0.580;2022-08-01T04:25:13;1.90;;;1.80;;
64426;SDS011;50772;51.482;-0.580;2022-08-01T04:27:40;1.65;;;1.65;;
64426;SDS011;50772;51.482;-0.580;2022-08-01T04:30:07;1.73;;;1.63;;
64426;SDS011;50772;51.482;-0.580;2022-08-01T04:32:38;1.90;;;1.80;;
64426;SDS011;50772;51.482;-0.580;2022-08-01T04:35:05;1.75;;;1.70;;
64426;SDS011;50772;51.482;-0.580;2022-08-01T04:37:31;1.75;;;1.67;;
64426;SDS011;50772;51.482;-0.580;2022-08-01T04:39:57;1.50;;;1.50;;
64426;SDS011;50772;51.482;-0.580;2022-08-01T04:42:24;1.92;;;1.83;;
64426;SDS011;50772;51.482;-0.580;2022-08-01T04:44:50;1.98;;;1.88;;
64426;SDS011;50772;51.482;-0.580;2022-08-01T04:47:15;1.60;;;1.60;;
64426;SDS011;50772;51.482;-0.580;2022-08-01T04:49:41;1.67;;;1.58;;
64426;SDS011;50772;51.482;-0.580;2022-08-01T04:52:06;1.90;;;1.58;;
64426;SDS011;50772;51.482;-0.580;2022-08-01T04:54:33;1.63;;;1.63;;
64426;SDS011;50772;51.482;-0.580;2022-08-01T04:56:59;1.38;;;1.38;;
64426;SDS011;50772;51.482;-0.580;2022-08-01T04:59:27;1.55;;;1.45;;
64426;SDS011;50772;51.482;-0.580;2022-08-01T05:02:05;1.50;;;1.45;;
64426;SDS011;50772;51.482;-0.580;2022-08-01T05:04:30;1.90;;;1.80;;
64426;SDS011;50772;51.482;-0.580;2022-08-01T05:06:56;4.65;;;1.73;;
64426;SDS011;50772;51.482;-0.580;2022-08-01T05:09:21;1.50;;;1.50;;
64426;SDS011;50772;51.482;-0.580;2022-08-01T05:11:46;2.10;;;2.00;;
64426;SDS011;50772;51.482;-0.580;2022-08-01T05:14:11;2.13;;;2.03;;
64426;SDS011;50772;51.482;-0.580;2022-08-01T05:16:36;1.50;;;1.50;;
64426;SDS011;50772;51.482;-0.580;2022-08-01T05:19:02;1.80;;;1.70;;
64426;SDS011;50772;51.482;-0.580;2022-08-01T05:21:27;1.75;;;1.67;;
64426;SDS011;50772;51.482;-0.580;2022-08-01T05:23:52;1.70;;;1.60;;
64426;SDS011;50772;51.482;-0.580;2022-08-01T05:26:18;3.00;;;1.60;;
64426;SDS011;50772;51.482;-0.580;2022-08-01T05:28:43;1.87;;;1.77;;
64426;SDS011;50772;51.482;-0.580;2022-08-01T05:31:08;2.00;;;1.90;;
64426;SDS011;50772;51.482;-0.580;2022-08-01T05:33:33;1.63;;;1.60;;
64426;SDS011;50772;51.482;-0.580;2022-08-01T05:35:58;1.70;;;1.53;;
64426;SDS011;50772;51.482;-0.580;2022-08-01T05:38:24;1.75;;;1.65;;
64426;SDS011;50772;51.482;-0.580;2022-08-01T05:40:49;1.73;;;1.70;;
64426;SDS011;50772;51.482;-0.580;2022-08-01T05:43:14;1.55;;;1.50;;
64426;SDS011;50772;51.482;-0.580;2022-08-01T05:45:40;1.70;;;1.63;;
64426;SDS011;50772;51.482;-0.580;2022-08-01T05:48:06;1.42;;;1.42;;
64426;SDS011;50772;51.482;-0.580;2022-08-01T05:50:32;1.60;;;1.50;;
64426;SDS011;50772;51.482;-0.580;2022-08-01T05:52:57;2.13;;;1.48;;
64426;SDS011;50772;51.482;-0.580;2022-08-01T05:55:23;1.80;;;1.70;;
64426;SDS011;50772;51.482;-0.580;2022-08-01T05:57:48;1.80;;;1.80;;
64426;SDS011;50772;51.482;-0.580;2022-08-01T06:00:13;1.60;;;1.50;;
64426;SDS011;50772;51.482;-0.580;2022-08-01T06:02:40;2.17;;;2.08;;
64426;SDS011;50772;51.482;-0.580;2022-08-01T06:05:05;1.75;;;1.65;;
64426;SDS011;50772;51.482;-0.580;2022-08-01T06:07:30;1.70;;;1.60;;
64426;SDS011;50772;51.482;-0.580;2022-08-01T06:09:56;1.50;;;1.50;;
64426;SDS011;50772;51.482;-0.580;2022-08-01T06:12:21;1.63;;;1.63;;
64426;SDS011;50772;51.482;-0.580;2022-08-01T06:14:46;2.07;;;1.83;;
64426;SDS011;50772;51.482;-0.580;2022-08-01T06:17:11;1.87;;;1.70;;
64426;SDS011;50772;51.482;-0.580;2022-08-01T06:19:36;2.42;;;1.52;;
64426;SDS011;50772;51.482;-0.580;2022-08-01T06:22:02;1.33;;;1.33;;
64426;SDS011;50772;51.482;-0.580;2022-08-01T06:24:27;1.57;;;1.53;;
64426;SDS011;50772;51.482;-0.580;2022-08-01T06:26:52;2.00;;;1.90;;
64426;SDS011;50772;51.482;-0.580;2022-08-01T06:29:17;1.60;;;1.60;;
64426;SDS011;50772;51.482;-0.580;2022-08-01T06:31:43;2.83;;;1.42;;
64426;SDS011;50772;51.482;-0.580;2022-08-01T06:34:08;1.77;;;1.67;;
64426;SDS011;50772;51.482;-0.580;2022-08-01T06:36:33;2.00;;;1.90;;
64426;SDS011;50772;51.482;-0.580;2022-08-01T06:38:58;3.28;;;2.00;;
64426;SDS011;50772;51.482;-0.580;2022-08-01T06:41:23;1.83;;;1.60;;
64426;SDS011;50772;51.482;-0.580;2022-08-01T06:43:49;2.20;;;1.73;;
64426;SDS011;50772;51.482;-0.580;2022-08-01T06:46:14;1.27;;;1.27;;
64426;SDS011;50772;51.482;-0.580;2022-08-01T06:48:39;1.60;;;1.52;;
64426;SDS011;50772;51.482;-0.580;2022-08-01T06:51:05;1.70;;;1.60;;
64426;SDS011;50772;51.482;-0.580;2022-08-01T06:53:36;2.10;;;1.85;;
64426;SDS011;50772;51.482;-0.580;2022-08-01T06:56:02;1.40;;;1.40;;
64426;SDS011;50772;51.482;-0.580;2022-08-01T06:58:27;1.48;;;1.40;;
64426;SDS011;50772;51.482;-0.580;2022-08-01T07:00:52;1.48;;;1.42;;
64426;SDS011;50772;51.482;-0.580;2022-08-01T07:03:18;1.53;;;1.50;;
64426;SDS011;50772;51.482;-0.580;2022-08-01T07:05:43;1.80;;;1.70;;
64426;SDS011;50772;51.482;-0.580;2022-08-01T07:08:08;2.00;;;1.90;;
64426;SDS011;50772;51.482;-0.580;2022-08-01T07:10:33;3.20;;;1.83;;
64426;SDS011;50772;51.482;-0.580;2022-08-01T07:12:58;1.80;;;1.70;;
64426;SDS011;50772;51.482;-0.580;2022-08-01T07:15:24;1.77;;;1.67;;
64426;SDS011;50772;51.482;-0.580;2022-08-01T07:17:51;1.70;;;1.65;;
64426;SDS011;50772;51.482;-0.580;2022-08-01T07:20:16;1.88;;;1.77;;
64426;SDS011;50772;51.482;-0.580;2022-08-01T07:22:42;1.63;;;1.52;;
64426;SDS011;50772;51.482;-0.580;2022-08-01T07:25:07;1.95;;;1.85;;
64426;SDS011;50772;51.482;-0.580;2022-08-01T07:27:34;3.03;;;1.95;;
64426;SDS011;50772;51.482;-0.580;2022-08-01T07:30:00;2.03;;;1.85;;
64426;SDS011;50772;51.482;-0.580;2022-08-01T07:32:25;1.70;;;1.60;;
64426;SDS011;50772;51.482;-0.580;2022-08-01T07:34:50;1.90;;;1.80;;
64426;SDS011;50772;51.482;-0.580;2022-08-01T07:37:16;2.10;;;1.90;;
64426;SDS011;50772;51.482;-0.580;2022-08-01T07:39:41;2.47;;;2.28;;
64426;SDS011;50772;51.482;-0.580;2022-08-01T07:42:06;2.23;;;2.07;;
64426;SDS011;50772;51.482;-0.580;2022-08-01T07:44:31;2.40;;;2.30;;
64426;SDS011;50772;51.482;-0.580;2022-08-01T07:46:57;2.30;;;2.20;;
64426;SDS011;50772;51.482;-0.580;2022-08-01T07:49:22;3.73;;;2.20;;
64426;SDS011;50772;51.482;-0.580;2022-08-01T07:51:47;2.27;;;2.17;;
64426;SDS011;50772;51.482;-0.580;2022-08-01T07:54:12;4.75;;;2.63;;
64426;SDS011;50772;51.482;-0.580;2022-08-01T07:56:38;3.10;;;2.80;;
64426;SDS011;50772;51.482;-0.580;2022-08-01T07:59:03;3.25;;;3.05;;
64426;SDS011;50772;51.482;-0.580;2022-08-01T08:01:28;3.33;;;3.03;;
64426;SDS011;50772;51.482;-0.580;2022-08-01T08:03:53;3.22;;;3.13;;
64426;SDS011;50772;51.482;-0.580;2022-08-01T08:06:19;3.30;;;3.00;;
64426;SDS011;50772;51.482;-0.580;2022-08-01T08:08:44;2.80;;;2.70;;
64426;SDS011;50772;51.482;-0.580;2022-08-01T08:11:09;4.28;;;2.80;;
64426;SDS011;50772;51.482;-0.580;2022-08-01T08:13:34;2.90;;;2.70;;
64426;SDS011;50772;51.482;-0.580;2022-08-01T08:16:00;2.30;;;2.20;;
64426;SDS011;50772;51.482;-0.580;2022-08-01T08:18:25;3.90;;;1.90;;
64426;SDS011;50772;51.482;-0.580;2022-08-01T08:20:50;1.90;;;1.80;;
64426;SDS011;50772;51.482;-0.580;2022-08-01T08:23:16;2.00;;;1.90;;
64426;SDS011;50772;51.482;-0.580;2022-08-01T08:26:00;1.80;;;1.70;;
64426;SDS011;50772;51.482;-0.580;2022-08-01T08:28:25;6.60;;;1.87;;
64426;SDS011;50772;51.482;-0.580;2022-08-01T08:30:50;2.38;;;2.28;;
64426;SDS011;50772;51.482;-0.580;2022-08-01T08:33:15;2.33;;;2.13;;
64426;SDS011;50772;51.482;-0.580;2022-08-01T08:35:40;2.10;;;2.00;;
64426;SDS011;50772;51.482;-0.580;2022-08-01T08:38:06;2.30;;;2.20;;
64426;SDS011;50772;51.482;-0.580;2022-08-01T08:40:31;2.42;;;2.22;;
64426;SDS011;50772;51.482;-0.580;2022-08-01T08:42:59;2.40;;;2.30;;
64426;SDS011;50772;51.482;-0.580;2022-08-01T08:45:25;3.65;;;2.10;;
64426;SDS011;50772;51.482;-0.580;2022-08-01T08:47:51;2.25;;;2.15;;
64426;SDS011;50772;51.482;-0.580;2022-08-01T08:50:17;2.42;;;2.33;;
64426;SDS011;50772;51.482;-0.580;2022-08-01T08:52:42;2.40;;;2.30;;
64426;SDS011;50772;51.482;-0.580;2022-08-01T08:55:08;3.25;;;2.30;;
64426;SDS011;50772;51.482;-0.580;2022-08-01T08:57:33;2.50;;;2.40;;
64426;SDS011;50772;51.482;-0.580;2022-08-01T08:59:59;2.25;;;2.15;;
64426;SDS011;50772;51.482;-0.580;2022-08-01T09:02:24;2.55;;;2.40;;
64426;SDS011;50772;51.482;-0.580;2022-08-01T09:04:50;2.42;;;2.20;;
64426;SDS011;50772;51.482;-0.580;2022-08-01T09:07:15;2.08;;;1.98;;
64426;SDS011;50772;51.482;-0.580;2022-08-01T09:09:41;2.42;;;2.33;;
64426;SDS011;50772;51.482;-0.580;2022-08-01T09:12:06;2.45;;;2.35;;
64426;SDS011;50772;51.482;-0.580;2022-08-01T09:14:31;3.83;;;2.53;;
64426;SDS011;50772;51.482;-0.580;2022-08-01T09:17:06;2.60;;;2.50;;
64426;SDS011;50772;51.482;-0.580;2022-08-01T09:19:37;2.22;;;2.13;;
64426;SDS011;50772;51.482;-0.580;2022-08-01T09:22:03;2.50;;;2.40;;
64426;SDS011;50772;51.482;-0.580;2022-08-01T09:24:29;2.58;;;2.38;;
64426;SDS011;50772;51.482;-0.580;2022-08-01T09:26:55;2.70;;;2.60;;
64426;SDS011;50772;51.482;-0.580;2022-08-01T09:29:22;2.30;;;2.20;;
64426;SDS011;50772;51.482;-0.580;2022-08-01T09:31:47;2.45;;;2.35;;
64426;SDS011;50772;51.482;-0.580;2022-08-01T09:34:13;2.90;;;2.80;;
64426;SDS011;50772;51.482;-0.580;2022-08-01T09:36:49;3.33;;;2.50;;
64426;SDS011;50772;51.482;-0.580;2022-08-01T09:39:18;3.33;;;2.50;;
64426;SDS011;50772;51.482;-0.580;2022-08-01T09:41:43;2.50;;;2.40;;
64426;SDS011;50772;51.482;-0.580;2022-08-01T09:44:08;2.97;;;2.50;;
64426;SDS011;50772;51.482;-0.580;2022-08-01T09:46:34;2.50;;;2.40;;
64426;SDS011;50772;51.482;-0.580;2022-08-01T09:49:00;2.70;;;2.53;;
64426;SDS011;50772;51.482;-0.580;2022-08-01T09:51:29;2.50;;;2.30;;
64426;SDS011;50772;51.482;-0.580;2022-08-01T09:53:54;2.17;;;2.08;;
64426;SDS011;50772;51.482;-0.580;2022-08-01T09:56:20;2.67;;;2.47;;
64426;SDS011;50772;51.482;-0.580;2022-08-01T10:01:14;4.20;;;2.50;;
64426;SDS011;50772;51.482;-0.580;2022-08-01T10:03:39;2.60;;;2.50;;
64426;SDS011;50772;51.482;-0.580;2022-08-01T10:06:26;2.77;;;2.67;;
64426;SDS011;50772;51.482;-0.580;2022-08-01T10:08:50;3.03;;;2.83;;
64426;SDS011;50772;51.482;-0.580;2022-08-01T10:11:15;3.03;;;2.33;;
64426;SDS011;50772;51.482;-0.580;2022-08-01T10:13:41;2.53;;;2.42;;
64426;SDS011;50772;51.482;-0.580;2022-08-01T10:16:06;2.88;;;2.67;;
64426;SDS011;50772;51.482;-0.580;2022-08-01T10:18:32;4.25;;;2.75;;
64426;SDS011;50772;51.482;-0.580;2022-08-01T10:20:58;3.10;;;2.90;;
64426;SDS011;50772;51.482;-0.580;2022-08-01T10:23:25;2.88;;;2.40;;
64426;SDS011;50772;51.482;-0.580;2022-08-01T10:25:51;3.67;;;2.55;;
64426;SDS011;50772;51.482;-0.580;2022-08-01T10:28:19;7.97;;;2.53;;
64426;SDS011;50772;51.482;-0.580;2022-08-01T10:30:45;2.60;;;2.42;;
64426;SDS011;50772;51.482;-0.580;2022-08-01T10:33:10;3.97;;;2.50;;
64426;SDS011;50772;51.482;-0.580;2022-08-01T10:35:36;2.30;;;2.20;;
64426;SDS011;50772;51.482;-0.580;2022-08-01T10:38:02;2.40;;;2.30;;
64426;SDS011;50772;51.482;-0.580;2022-08-01T10:40:27;2.33;;;2.23;;
64426;SDS011;50772;51.482;-0.580;2022-08-01T10:42:53;6.18;;;2.40;;
64426;SDS011;50772;51.482;-0.580;2022-08-01T10:45:19;2.67;;;2.33;;
64426;SDS011;50772;51.482;-0.580;2022-08-01T10:47:47;2.40;;;2.20;;
64426;SDS011;50772;51.482;-0.580;2022-08-01T10:50:15;2.80;;;2.10;;
64426;SDS011;50772;51.482;-0.580;2022-08-01T10:52:42;2.22;;;2.05;;
64426;SDS011;50772;51.482;-0.580;2022-08-01T10:55:27;2.03;;;1.50;;
64426;SDS011;50772;51.482;-0.580;2022-08-01T10:57:52;2.90;;;1.30;;
64426;SDS011;50772;51.482;-0.580;2022-08-01T11:00:21;3.28;;;1.50;;
64426;SDS011;50772;51.482;-0.580;2022-08-01T11:03:00;1.15;;;1.15;;
64426;SDS011;50772;51.482;-0.580;2022-08-01T11:05:26;2.53;;;1.25;;
64426;SDS011;50772;51.482;-0.580;2022-08-01T11:07:52;1.95;;;1.40;;
64426;SDS011;50772;51.482;-0.580;2022-08-01T11:10:22;3.20;;;1.42;;
64426;SDS011;50772;51.482;-0.580;2022-08-01T11:12:49;1.20;;;1.20;;
64426;SDS011;50772;51.482;-0.580;2022-08-01T11:25:25;3.63;;;1.58;;
64426;SDS011;50772;51.482;-0.580;2022-08-01T11:28:24;1.52;;;1.40;;
64426;SDS011;50772;51.482;-0.580;2022-08-01T11:33:18;4.57;;;1.30;;
64426;SDS011;50772;51.482;-0.580;2022-08-01T11:38:28;1.38;;;1.27;;
64426;SDS011;50772;51.482;-0.580;2022-08-01T11:41:10;1.80;;;1.70;;
64426;SDS011;50772;51.482;-0.580;2022-08-01T11:43:53;1.67;;;1.58;;
64426;SDS011;50772;51.482;-0.580;2022-08-01T11:46:19;1.55;;;1.50;;
64426;SDS011;50772;51.482;-0.580;2022-08-01T11:48:44;1.97;;;1.87;;
64426;SDS011;50772;51.482;-0.580;2022-08-01T11:51:09;1.88;;;1.77;;
64426;SDS011;50772;51.482;-0.580;2022-08-01T11:53:46;1.48;;;1.38;;
64426;SDS011;50772;51.482;-0.580;2022-08-01T11:56:11;1.35;;;1.35;;
64426;SDS011;50772;51.482;-0.580;2022-08-01T11:58:37;1.40;;;1.40;;
64426;SDS011;50772;51.482;-0.580;2022-08-01T12:01:02;1.57;;;1.50;;
64426;SDS011;50772;51.482;-0.580;2022-08-01T12:03:28;1.80;;;1.50;;
64426;SDS011;50772;51.482;-0.580;2022-08-01T12:05:54;1.42;;;1.42;;
64426;SDS011;50772;51.482;-0.580;2022-08-01T12:08:26;1.40;;;1.40;;
64426;SDS011;50772;51.482;-0.580;2022-08-01T12:10:51;1.40;;;1.40;;
64426;SDS011;50772;51.482;-0.580;2022-08-01T12:13:17;1.60;;;1.50;;
64426;SDS011;50772;51.482;-0.580;2022-08-01T12:15:45;1.70;;;1.60;;
64426;SDS011;50772;51.482;-0.580;2022-08-01T12:18:10;1.60;;;1.50;;
64426;SDS011;50772;51.482;-0.580;2022-08-01T12:20:37;1.60;;;1.50;;
64426;SDS011;50772;51.482;-0.580;2022-08-01T12:23:03;1.67;;;1.58;;
64426;SDS011;50772;51.482;-0.580;2022-08-01T12:25:30;2.05;;;1.50;;
64426;SDS011;50772;51.482;-0.580;2022-08-01T12:27:59;1.70;;;1.60;;
64426;SDS011;50772;51.482;-0.580;2022-08-01T12:30:24;2.70;;;1.33;;
64426;SDS011;50772;51.482;-0.580;2022-08-01T12:32:53;1.70;;;1.60;;
64426;SDS011;50772;51.482;-0.580;2022-08-01T12:35:25;1.20;;;1.20;;
64426;SDS011;50772;51.482;-0.580;2022-08-01T12:40:26;1.45;;;1.35;;
64426;SDS011;50772;51.482;-0.580;2022-08-01T12:42:52;1.50;;;1.50;;
64426;SDS011;50772;51.482;-0.580;2022-08-01T12:45:22;2.05;;;1.40;;
64426;SDS011;50772;51.482;-0.580;2022-08-01T12:50:15;1.40;;;1.30;;
64426;SDS011;50772;51.482;-0.580;2022-08-01T12:52:40;1.50;;;1.40;;
64426;SDS011;50772;51.482;-0.580;2022-08-01T12:55:15;1.60;;;1.50;;
64426;SDS011;50772;51.482;-0.580;2022-08-01T12:57:43;1.75;;;1.40;;
64426;SDS011;50772;51.482;-0.580;2022-08-01T13:00:19;1.50;;;1.50;;
64426;SDS011;50772;51.482;-0.580;2022-08-01T13:02:45;1.30;;;1.30;;
64426;SDS011;50772;51.482;-0.580;2022-08-01T13:05:11;1.52;;;1.52;;
64426;SDS011;50772;51.482;-0.580;2022-08-01T13:10:02;1.47;;;1.40;;
64426;SDS011;50772;51.482;-0.580;2022-08-01T13:12:28;2.20;;;1.38;;
64426;SDS011;50772;51.482;-0.580;2022-08-01T13:14:53;1.53;;;1.43;;
64426;SDS011;50772;51.482;-0.580;2022-08-01T13:17:34;1.30;;;1.30;;
64426;SDS011;50772;51.482;-0.580;2022-08-01T13:20:05;1.55;;;1.45;;
64426;SDS011;50772;51.482;-0.580;2022-08-01T13:22:34;1.48;;;1.38;;
64426;SDS011;50772;51.482;-0.580;2022-08-01T13:25:10;1.65;;;1.55;;
64426;SDS011;50772;51.482;-0.580;2022-08-01T13:27:35;1.33;;;1.30;;
64426;SDS011;50772;51.482;-0.580;2022-08-01T13:30:09;1.37;;;1.37;;
64426;SDS011;50772;51.482;-0.580;2022-08-01T13:32:35;1.30;;;1.30;;
64426;SDS011;50772;51.482;-0.580;2022-08-01T13:35:01;1.33;;;1.33;;
64426;SDS011;50772;51.482;-0.580;2022-08-01T13:37:26;1.52;;;1.52;;
64426;SDS011;50772;51.482;-0.580;2022-08-01T13:39:52;1.30;;;1.30;;
64426;SDS011;50772;51.482;-0.580;2022-08-01T13:42:17;1.50;;;1.50;;
64426;SDS011;50772;51.482;-0.580;2022-08-01T13:44:42;1.40;;;1.40;;
64426;SDS011;50772;51.482;-0.580;2022-08-01T13:47:10;1.30;;;1.30;;
64426;SDS011;50772;51.482;-0.580;2022-08-01T13:49:35;1.50;;;1.50;;
64426;SDS011;50772;51.482;-0.580;2022-08-01T13:52:00;1.40;;;1.40;;
64426;SDS011;50772;51.482;-0.580;2022-08-01T13:54:26;1.30;;;1.30;;
64426;SDS011;50772;51.482;-0.580;2022-08-01T13:56:52;1.50;;;1.40;;
64426;SDS011;50772;51.482;-0.580;2022-08-01T13:59:17;1.40;;;1.40;;
64426;SDS011;50772;51.482;-0.580;2022-08-01T14:01:42;1.20;;;1.20;;
64426;SDS011;50772;51.482;-0.580;2022-08-01T14:04:08;1.50;;;1.43;;
64426;SDS011;50772;51.482;-0.580;2022-08-01T14:06:33;1.43;;;1.43;;
64426;SDS011;50772;51.482;-0.580;2022-08-01T14:08:59;3.85;;;1.50;;
64426;SDS011;50772;51.482;-0.580;2022-08-01T14:11:25;1.10;;;1.10;;
64426;SDS011;50772;51.482;-0.580;2022-08-01T14:13:50;1.27;;;1.27;;
64426;SDS011;50772;51.482;-0.580;2022-08-01T14:16:16;1.70;;;1.17;;
64426;SDS011;50772;51.482;-0.580;2022-08-01T14:18:41;1.60;;;1.50;;
64426;SDS011;50772;51.482;-0.580;2022-08-01T14:21:06;1.43;;;1.37;;
64426;SDS011;50772;51.482;-0.580;2022-08-01T14:23:32;1.50;;;1.40;;
64426;SDS011;50772;51.482;-0.580;2022-08-01T14:25:57;1.37;;;1.30;;
64426;SDS011;50772;51.482;-0.580;2022-08-01T14:28:22;3.03;;;1.30;;
64426;SDS011;50772;51.482;-0.580;2022-08-01T14:30:49;1.35;;;1.35;;
64426;SDS011;50772;51.482;-0.580;2022-08-01T14:33:14;1.40;;;1.40;;
64426;SDS011;50772;51.482;-0.580;2022-08-01T14:35:39;1.30;;;1.23;;
64426;SDS011;50772;51.482;-0.580;2022-08-01T14:38:05;1.27;;;1.27;;
64426;SDS011;50772;51.482;-0.580;2022-08-01T14:40:30;1.95;;;1.50;;
64426;SDS011;50772;51.482;-0.580;2022-08-01T14:42:55;1.30;;;1.30;;
64426;SDS011;50772;51.482;-0.580;2022-08-01T14:45:21;1.30;;;1.20;;
64426;SDS011;50772;51.482;-0.580;2022-08-01T14:47:46;1.20;;;1.20;;
64426;SDS011;50772;51.482;-0.580;2022-08-01T14:50:13;1.65;;;1.48;;
64426;SDS011;50772;51.482;-0.580;2022-08-01T14:52:39;1.30;;;1.30;;
64426;SDS011;50772;51.482;-0.580;2022-08-01T14:55:05;1.40;;;1.40;;
64426;SDS011;50772;51.482;-0.580;2022-08-01T14:57:31;1.30;;;1.30;;
64426;SDS011;50772;51.482;-0.580;2022-08-01T14:59:56;1.13;;;1.13;;